createdAt,value
2022-11-12T00:03:03.289Z,102502.53
2022-11-12T00:05:51.160Z,102506.84
2022-11-12T00:08:38.609Z,102501.63
2022-11-12T00:11:25.510Z,102504.34
2022-11-12T00:14:13.171Z,102510.50
2022-11-12T00:17:00.418Z,102518.56
2022-11-12T00:19:47.717Z,102496.69
2022-11-12T00:22:34.978Z,102491.38
2022-11-12T00:25:23.886Z,102491.13
2022-11-12T00:28:11.677Z,102496.44
2022-11-12T00:30:59.567Z,102494.75
2022-11-12T00:33:46.929Z,102495.66
2022-11-12T00:36:34.169Z,102489.44
2022-11-12T00:39:21.218Z,102483.25
2022-11-12T00:42:08.547Z,102473.56
2022-11-12T00:44:55.869Z,102477.06
2022-11-12T00:47:43.308Z,102482.38
2022-11-12T00:50:30.740Z,102482.38
2022-11-12T00:53:18.568Z,102464.03
2022-11-12T00:56:07.260Z,102469.28
2022-11-12T00:58:54.587Z,102473.63
2022-11-12T01:01:41.939Z,102459.75
2022-11-12T01:04:29.670Z,102472.72
2022-11-12T01:07:16.600Z,102466.63
2022-11-12T01:10:05.848Z,102455.53
2022-11-12T01:12:52.730Z,102464.88
2022-11-12T01:15:43.451Z,102468.38
2022-11-12T01:18:30.789Z,102443.94
2022-11-12T01:21:18.229Z,102461.44
2022-11-12T01:24:05.772Z,102462.41
2022-11-12T01:26:53.589Z,102472.91
2022-11-12T01:29:41.274Z,102474.78
2022-11-12T01:32:28.620Z,102465.06
2022-11-12T01:35:15.630Z,102475.69
2022-11-12T01:38:05.449Z,102478.34
2022-11-12T01:40:52.598Z,102474.78
2022-11-12T01:43:40.928Z,102465.97
2022-11-12T01:46:29.229Z,102458.97
2022-11-12T01:49:51.456Z,102460.66
2022-11-12T01:52:50.543Z,102443.94
2022-11-12T01:55:39.251Z,102444.03
2022-11-12T01:58:28.535Z,102443.25
2022-11-12T02:01:16.054Z,102442.31
2022-11-12T02:04:03.068Z,102430.22
2022-11-12T02:06:50.633Z,102442.41
2022-11-12T02:09:37.608Z,102433.66
2022-11-12T02:12:44.598Z,102418.81
2022-11-12T02:15:31.718Z,102419.41
2022-11-12T02:18:18.958Z,102419.41
2022-11-12T02:21:10.399Z,102406.38
2022-11-12T02:24:06.348Z,102407.09
2022-11-12T02:26:55.368Z,102408.91
2022-11-12T02:29:46.760Z,102415.97
2022-11-12T02:32:34.100Z,102423.94
2022-11-12T02:35:21.558Z,102415.13
2022-11-12T02:38:08.618Z,102407.25
2022-11-12T02:40:55.797Z,102401.00
2022-11-12T02:43:43.767Z,102402.88
2022-11-12T02:46:31.187Z,102396.63
2022-11-12T02:49:17.978Z,102396.63
2022-11-12T02:52:05.526Z,102396.78
2022-11-12T02:54:52.667Z,102398.41
2022-11-12T02:57:41.178Z,102402.03
2022-11-12T03:00:28.097Z,102393.19
2022-11-12T03:03:15.786Z,102389.69
2022-11-12T03:06:02.713Z,102399.44
2022-11-12T03:08:49.780Z,102396.78
2022-11-12T03:11:37.037Z,102388.03
2022-11-12T03:14:24.360Z,102385.28
2022-11-12T03:17:11.259Z,102391.63
2022-11-12T03:19:58.809Z,102388.97
2022-11-12T03:23:01.057Z,102377.50
2022-11-12T03:25:48.385Z,102381.00
2022-11-12T03:28:35.576Z,102375.69
2022-11-12T03:31:23.397Z,102379.31
2022-11-12T03:34:12.070Z,102368.97
2022-11-12T03:36:59.537Z,102384.63
2022-11-12T03:39:46.618Z,102383.84
2022-11-12T03:42:34.968Z,102382.09
2022-11-12T03:45:24.338Z,102378.53
2022-11-12T03:48:11.629Z,102376.78
2022-11-12T03:50:59.857Z,102380.28
2022-11-12T03:53:47.398Z,102375.16
2022-11-12T03:56:34.950Z,102382.09
2022-11-12T03:59:22.566Z,102375.09
2022-11-12T04:02:14.665Z,102368.03
2022-11-12T04:05:20.472Z,102365.38
2022-11-12T04:08:35.927Z,102355.94
2022-11-12T04:11:23.325Z,102355.69
2022-11-12T04:14:10.026Z,102355.78
2022-11-12T04:17:15.826Z,102353.03
2022-11-12T04:20:21.235Z,102361.97
2022-11-12T04:23:08.854Z,102357.56
2022-11-12T04:26:14.296Z,102350.63
2022-11-12T04:29:20.467Z,102366.50
2022-11-12T04:32:07.644Z,102340.56
2022-11-12T04:34:56.636Z,102342.91
2022-11-12T04:37:46.926Z,102356.78
2022-11-12T04:40:52.745Z,102355.09
2022-11-12T04:44:00.236Z,102350.63
2022-11-12T04:46:48.405Z,102350.63
2022-11-12T04:49:35.475Z,102332.28
2022-11-12T04:52:23.076Z,102339.22
2022-11-12T04:55:11.245Z,102320.91
2022-11-12T04:58:00.862Z,102325.19
2022-11-12T05:00:49.198Z,102319.03
2022-11-12T05:03:36.515Z,102316.38
2022-11-12T05:06:42.075Z,102319.88
2022-11-12T05:09:30.684Z,102319.88
2022-11-12T05:12:17.704Z,102314.50
2022-11-12T05:15:05.664Z,102316.13
2022-11-12T05:17:53.070Z,102316.75
2022-11-12T05:20:41.285Z,102312.81
2022-11-12T05:23:28.165Z,102311.50
2022-11-12T05:26:15.663Z,102318.03
2022-11-12T05:29:07.546Z,102313.94
2022-11-12T05:31:56.145Z,102306.66
2022-11-12T05:34:43.087Z,102297.59
2022-11-12T05:37:30.525Z,102302.16
2022-11-12T05:40:17.776Z,102312.06
2022-11-12T05:43:05.065Z,102318.81
2022-11-12T05:45:52.254Z,102306.41
2022-11-12T05:48:39.625Z,102297.25
2022-11-12T05:51:26.733Z,102304.25
2022-11-12T05:54:14.194Z,102292.84
2022-11-12T05:57:01.214Z,102291.75
2022-11-12T05:59:48.718Z,102281.28
2022-11-12T06:02:35.830Z,102290.19
2022-11-12T06:05:22.984Z,102295.00
2022-11-12T06:08:10.193Z,102288.81
2022-11-12T06:10:57.747Z,102288.91
2022-11-12T06:13:44.814Z,102287.09
2022-11-12T06:16:32.284Z,102289.00
2022-11-12T06:19:19.244Z,102292.50
2022-11-12T06:22:06.457Z,102286.34
2022-11-12T06:24:53.676Z,102299.63
2022-11-12T06:27:41.946Z,102298.94
2022-11-12T06:30:29.205Z,102294.66
2022-11-12T06:33:16.364Z,102284.94
2022-11-12T06:36:05.348Z,102291.31
2022-11-12T06:38:52.626Z,102272.94
2022-11-12T06:41:39.755Z,102291.53
2022-11-12T06:44:28.704Z,102294.19
2022-11-12T06:47:15.682Z,102295.16
2022-11-12T06:50:03.105Z,102285.63
2022-11-12T06:52:50.562Z,102283.13
2022-11-12T06:55:38.213Z,102288.44
2022-11-12T06:58:25.755Z,102298.91
2022-11-12T07:01:17.717Z,102287.84
2022-11-12T07:04:05.314Z,102298.38
2022-11-12T07:06:52.800Z,102305.50
2022-11-12T07:09:39.886Z,102299.41
2022-11-12T07:12:27.325Z,102292.38
2022-11-12T07:15:14.915Z,102279.97
2022-11-12T07:18:02.285Z,102278.31
2022-11-12T07:20:49.434Z,102287.16
2022-11-12T07:23:37.286Z,102291.59
2022-11-12T07:26:27.738Z,102287.22
2022-11-12T07:29:30.024Z,102281.16
2022-11-12T07:32:22.495Z,102283.81
2022-11-12T07:35:11.145Z,102287.31
2022-11-12T07:37:59.792Z,102281.06
2022-11-12T07:40:47.685Z,102282.84
2022-11-12T07:43:37.099Z,102286.53
2022-11-12T07:46:27.226Z,102277.09
2022-11-12T07:49:14.297Z,102288.34
2022-11-12T07:52:01.585Z,102283.03
2022-11-12T07:54:48.495Z,102280.44
2022-11-12T07:57:36.607Z,102279.34
2022-11-12T08:00:24.067Z,102286.59
2022-11-12T08:03:11.484Z,102286.59
2022-11-12T08:06:01.795Z,102283.28
2022-11-12T08:08:51.546Z,102279.16
2022-11-12T08:11:38.385Z,102294.75
2022-11-12T08:14:26.935Z,102288.59
2022-11-12T08:17:13.815Z,102296.78
2022-11-12T08:20:02.365Z,102295.09
2022-11-12T08:22:49.685Z,102282.75
2022-11-12T08:25:37.706Z,102266.09
2022-11-12T08:28:25.160Z,102259.25
2022-11-12T08:31:21.442Z,102248.09
2022-11-12T08:34:17.402Z,102272.44
2022-11-12T08:37:08.507Z,102276.56
2022-11-12T08:39:55.900Z,102273.91
2022-11-12T08:42:43.234Z,102276.72
2022-11-12T08:45:32.537Z,102280.34
2022-11-12T08:48:20.248Z,102269.00
2022-11-12T08:51:07.618Z,102274.94
2022-11-12T08:53:56.647Z,102263.53
2022-11-12T08:56:43.571Z,102256.50
2022-11-12T08:59:30.938Z,102265.25
2022-11-12T09:02:18.178Z,102274.84
2022-11-12T09:05:06.501Z,102270.56
2022-11-12T09:08:01.728Z,102258.13
2022-11-12T09:10:49.460Z,102268.84
2022-11-12T09:13:36.893Z,102266.97
2022-11-12T09:16:24.561Z,102266.28
2022-11-12T09:19:11.570Z,102259.50
2022-11-12T09:21:59.167Z,102267.28
2022-11-12T09:24:46.301Z,102255.81
2022-11-12T09:27:33.748Z,102271.75
2022-11-12T09:30:20.680Z,102275.25
2022-11-12T09:33:08.025Z,102268.25
2022-11-12T09:35:55.413Z,102267.47
2022-11-12T09:38:42.747Z,102261.97
2022-11-12T09:41:40.331Z,102246.38
2022-11-12T09:44:31.736Z,102248.69
2022-11-12T09:47:31.105Z,102252.13
2022-11-12T09:50:38.195Z,102261.13
2022-11-12T09:54:00.637Z,102261.91
2022-11-12T09:56:51.651Z,102252.31
2022-11-12T09:59:39.912Z,102249.41
2022-11-12T10:03:01.513Z,102230.28
2022-11-12T10:06:12.264Z,102236.88
2022-11-12T10:09:29.284Z,102236.81
2022-11-12T10:12:44.276Z,102236.81
2022-11-12T10:16:17.296Z,102209.56
2022-11-12T10:19:35.492Z,102215.56
2022-11-12T10:22:31.621Z,102184.91
2022-11-12T10:25:20.175Z,102181.75
2022-11-12T10:28:35.668Z,102189.44
2022-11-12T10:31:25.552Z,102191.19
2022-11-12T10:34:19.735Z,102197.06
2022-11-12T10:37:10.954Z,102194.25
2022-11-12T10:39:58.485Z,102194.59
2022-11-12T10:43:21.632Z,102181.31
2022-11-12T10:46:27.570Z,102192.03
2022-11-12T10:49:14.778Z,102184.13
2022-11-12T10:52:02.853Z,102182.34
2022-11-12T10:54:55.010Z,102179.78
2022-11-12T10:57:45.068Z,102174.28
2022-11-12T11:00:33.072Z,102170.69
2022-11-12T11:03:28.901Z,102173.44
2022-11-12T11:06:16.515Z,102170.84
2022-11-12T11:09:17.581Z,102160.66
2022-11-12T11:12:08.773Z,102160.56
2022-11-12T11:15:29.032Z,102154.06
2022-11-12T11:18:16.302Z,102152.63
2022-11-12T11:21:35.611Z,102151.69
2022-11-12T11:24:42.682Z,102117.75
2022-11-12T11:27:59.803Z,102131.72
2022-11-12T11:31:03.272Z,102129.81
2022-11-12T11:34:27.316Z,102126.25
2022-11-12T11:37:32.833Z,102111.25
2022-11-12T11:40:43.611Z,102116.41
2022-11-12T11:44:03.390Z,102118.16
2022-11-12T11:47:10.112Z,102111.41
2022-11-12T11:50:25.982Z,102115.50
2022-11-12T11:53:28.261Z,102103.28
2022-11-12T11:56:28.601Z,102104.19
2022-11-12T11:59:33.561Z,102100.78
2022-11-12T12:03:05.795Z,102065.34
2022-11-12T12:06:24.273Z,102067.72
2022-11-12T12:09:44.173Z,102082.53
2022-11-12T12:13:10.152Z,102091.13
2022-11-12T12:16:35.011Z,102093.78
2022-11-12T12:19:45.849Z,102087.69
2022-11-12T12:23:02.583Z,102076.81
2022-11-12T12:25:50.278Z,102075.94
2022-11-12T12:28:46.212Z,102076.72
2022-11-12T12:31:39.113Z,102080.31
2022-11-12T12:34:34.110Z,102081.09
2022-11-12T12:37:36.370Z,102059.59
2022-11-12T12:40:26.821Z,102075.00
2022-11-12T12:43:20.188Z,102081.09
2022-11-12T12:46:07.804Z,102061.13
2022-11-12T12:48:55.959Z,102062.06
2022-11-12T12:51:43.448Z,102073.97
2022-11-12T12:54:39.579Z,102075.78
2022-11-12T12:57:39.629Z,102068.16
2022-11-12T13:00:41.076Z,102065.50
2022-11-12T13:03:44.541Z,102076.56
2022-11-12T13:06:41.380Z,102073.22
2022-11-12T13:09:29.545Z,102065.34
2022-11-12T13:12:18.269Z,102063.78
2022-11-12T13:15:16.993Z,102081.88
2022-11-12T13:18:27.242Z,102078.09
2022-11-12T13:21:19.944Z,102076.63
2022-11-12T13:24:12.892Z,102070.81
2022-11-12T13:27:00.238Z,102063.94
2022-11-12T13:29:49.240Z,102061.22
2022-11-12T13:32:46.559Z,102066.25
2022-11-12T13:35:41.051Z,102063.88
2022-11-12T13:38:28.609Z,102078.09
2022-11-12T13:41:39.794Z,102065.84
2022-11-12T13:44:27.106Z,102058.91
2022-11-12T13:47:19.235Z,102058.72
2022-11-12T13:50:09.084Z,102058.91
2022-11-12T13:52:56.427Z,102060.88
2022-11-12T13:55:51.225Z,102050.25
2022-11-12T13:58:42.572Z,102039.13
2022-11-12T14:01:33.667Z,102044.19
2022-11-12T14:04:24.334Z,102040.75
2022-11-12T14:07:41.966Z,102049.41
2022-11-12T14:10:45.960Z,102047.75
2022-11-12T14:14:15.105Z,102045.09
2022-11-12T14:17:43.206Z,102046.91
2022-11-12T14:20:40.445Z,102047.00
2022-11-12T14:23:27.948Z,102027.84
2022-11-12T14:26:33.105Z,102021.84
2022-11-12T14:29:20.776Z,102027.84
2022-11-12T14:32:09.864Z,102029.38
2022-11-12T14:34:57.436Z,102036.38
2022-11-12T14:37:49.266Z,102020.81
2022-11-12T14:40:43.985Z,102007.28
2022-11-12T14:43:43.745Z,102041.88
2022-11-12T14:46:50.472Z,102023.28
2022-11-12T14:49:44.931Z,102013.78
2022-11-12T14:52:37.655Z,102026.09
2022-11-12T14:55:34.569Z,102024.22
2022-11-12T14:58:23.370Z,102028.69
2022-11-12T15:02:26.565Z,102024.56
2022-11-12T15:05:02.718Z,102030.56
2022-11-12T15:08:06.418Z,102022.59
2022-11-12T15:10:53.910Z,102030.66
2022-11-12T15:13:41.614Z,102038.59
2022-11-12T15:16:34.608Z,102032.53
2022-11-12T15:19:28.743Z,102037.75
2022-11-12T15:22:22.987Z,102029.88
2022-11-12T15:25:28.682Z,102029.88
2022-11-12T15:28:24.264Z,102024.56
2022-11-12T15:31:20.604Z,102029.63
2022-11-12T15:34:42.079Z,102029.63
2022-11-12T15:37:31.191Z,102025.19
2022-11-12T15:40:21.039Z,102029.53
2022-11-12T15:43:19.052Z,102027.75
2022-11-12T15:46:13.642Z,102015.34
2022-11-12T15:49:00.592Z,102028.69
2022-11-12T15:51:48.433Z,102028.75
2022-11-12T15:54:40.708Z,102029.44
2022-11-12T15:57:31.722Z,102019.09
2022-11-12T16:00:21.649Z,102029.38
2022-11-12T16:03:19.652Z,102026.63
2022-11-12T16:06:09.386Z,102018.56
2022-11-12T16:08:56.818Z,102020.13
2022-11-12T16:11:44.197Z,102021.66
2022-11-12T16:14:31.813Z,102020.34
2022-11-12T16:17:19.121Z,102004.88
2022-11-12T16:20:21.772Z,102006.78
2022-11-12T16:23:08.968Z,101998.31
2022-11-12T16:25:56.543Z,101991.66
2022-11-12T16:28:44.177Z,101988.38
2022-11-12T16:31:31.938Z,101990.50
2022-11-12T16:34:19.522Z,101988.72
2022-11-12T16:37:12.316Z,101993.00
2022-11-12T16:39:59.796Z,101978.69
2022-11-12T16:42:48.455Z,101982.94
2022-11-12T16:45:43.052Z,101980.50
2022-11-12T16:48:35.392Z,101989.03
2022-11-12T16:51:23.547Z,101989.13
2022-11-12T16:54:12.324Z,101983.03
2022-11-12T16:56:59.607Z,101988.56
2022-11-12T16:59:48.102Z,101986.75
2022-11-12T17:02:39.231Z,101984.94
2022-11-12T17:05:29.943Z,101972.78
2022-11-12T17:08:17.153Z,101977.94
2022-11-12T17:11:10.186Z,101966.09
2022-11-12T17:13:57.622Z,101974.66
2022-11-12T17:16:45.620Z,101968.75
2022-11-12T17:19:32.516Z,101965.06
2022-11-12T17:22:20.786Z,101972.28
2022-11-12T17:25:09.953Z,101964.41
2022-11-12T17:27:58.032Z,101965.63
2022-11-12T17:30:44.962Z,101962.03
2022-11-12T17:33:38.572Z,101964.78
2022-11-12T17:36:27.817Z,101973.69
2022-11-12T17:42:22.951Z,101958.94
2022-11-12T17:45:10.822Z,101957.19
2022-11-12T17:47:57.972Z,101956.41
2022-11-12T17:50:45.602Z,101953.84
2022-11-12T17:53:33.117Z,101951.28
2022-11-12T17:56:23.532Z,101948.78
2022-11-12T17:59:10.678Z,101947.09
2022-11-12T18:01:58.091Z,101942.72
2022-11-12T18:04:45.674Z,101933.88
2022-11-12T18:07:34.452Z,101928.66
2022-11-12T18:10:21.312Z,101902.16
2022-11-12T18:13:08.923Z,101920.13
2022-11-12T18:15:56.188Z,101929.88
2022-11-12T18:18:43.901Z,101925.44
2022-11-12T18:21:31.167Z,101925.53
2022-11-12T18:24:18.642Z,101917.72
2022-11-12T18:27:06.092Z,101916.88
2022-11-12T18:29:54.312Z,101901.03
2022-11-12T18:32:43.123Z,101889.84
2022-11-12T18:35:30.837Z,101887.28
2022-11-12T18:38:18.053Z,101885.56
2022-11-12T18:41:15.822Z,101898.00
2022-11-12T18:44:03.113Z,101890.88
2022-11-12T18:46:50.401Z,101886.53
2022-11-12T18:49:37.393Z,101900.72
2022-11-12T18:52:24.952Z,101876.91
2022-11-12T18:55:12.301Z,101900.16
2022-11-12T18:57:59.663Z,101906.25
2022-11-12T19:00:46.934Z,101899.22
2022-11-12T19:03:37.349Z,101896.56
2022-11-12T19:06:24.847Z,101882.72
2022-11-12T19:09:14.214Z,101906.03
2022-11-12T19:12:01.331Z,101904.75
2022-11-12T19:14:49.033Z,101906.44
2022-11-12T19:17:36.023Z,101903.31
2022-11-12T19:20:23.272Z,101905.16
2022-11-12T19:23:10.752Z,101906.47
2022-11-12T19:26:04.044Z,101905.47
2022-11-12T19:28:51.463Z,101904.19
2022-11-12T19:31:39.052Z,101918.25
2022-11-12T19:34:25.967Z,101920.72
2022-11-12T19:37:32.364Z,101932.31
2022-11-12T19:40:20.444Z,101928.72
2022-11-12T19:43:08.760Z,101930.44
2022-11-12T19:45:55.827Z,101931.44
2022-11-12T19:48:44.824Z,101932.31
2022-11-12T19:51:32.303Z,101943.97
2022-11-12T19:54:19.953Z,101932.69
2022-11-12T19:57:07.351Z,101941.31
2022-11-12T19:59:54.982Z,101936.22
2022-11-12T20:02:42.324Z,101943.31
2022-11-12T20:05:30.553Z,101951.47
2022-11-12T20:08:17.532Z,101944.66
2022-11-12T20:11:05.753Z,101942.00
2022-11-12T20:13:54.155Z,101942.16
2022-11-12T20:16:42.925Z,101929.25
2022-11-12T20:19:30.088Z,101952.88
2022-11-12T20:22:17.796Z,101953.63
2022-11-12T20:25:05.589Z,101966.16
2022-11-12T20:27:52.987Z,101964.63
2022-11-12T20:30:40.257Z,101958.47
2022-11-12T20:33:28.001Z,101960.38
2022-11-12T20:36:20.024Z,101954.31
2022-11-12T20:39:08.311Z,101957.88
2022-11-12T20:41:55.259Z,101956.09
2022-11-12T20:44:42.613Z,101949.91
2022-11-12T20:47:29.914Z,101941.19
2022-11-12T20:50:17.603Z,101941.38
2022-11-12T20:53:06.027Z,101943.09
2022-11-12T20:55:53.642Z,101937.00
2022-11-12T20:58:40.943Z,101937.00
2022-11-12T21:01:30.337Z,101937.09
2022-11-12T21:04:17.533Z,101931.91
2022-11-12T21:07:06.491Z,101924.09
2022-11-12T21:09:54.073Z,101918.19
2022-11-12T21:12:41.516Z,101928.56
2022-11-12T21:15:28.739Z,101918.88
2022-11-12T21:18:16.326Z,101909.47
2022-11-12T21:21:10.088Z,101917.44
2022-11-12T21:24:03.411Z,101919.91
2022-11-12T21:26:52.048Z,101911.09
2022-11-12T21:29:39.597Z,101908.63
2022-11-12T21:32:26.847Z,101914.78
2022-11-12T21:35:14.142Z,101903.66
2022-11-12T21:38:01.226Z,101907.00
2022-11-12T21:40:48.424Z,101907.00
2022-11-12T21:43:40.124Z,101902.53
2022-11-12T21:46:30.979Z,101898.28
2022-11-12T21:49:18.141Z,101898.28
2022-11-12T21:52:05.609Z,101896.56
2022-11-12T21:54:52.674Z,101891.63
2022-11-12T21:57:39.844Z,101905.47
2022-11-12T22:00:41.394Z,101909.06
2022-11-12T22:03:32.297Z,101899.66
2022-11-12T22:06:20.702Z,101905.84
2022-11-12T22:09:08.033Z,101901.56
2022-11-12T22:11:55.194Z,101902.16
2022-11-12T22:14:43.902Z,101899.75
2022-11-12T22:17:33.646Z,101900.63
2022-11-12T22:20:20.758Z,101905.06
2022-11-12T22:23:07.574Z,101903.38
2022-11-12T22:25:58.158Z,101898.97
2022-11-12T22:28:46.292Z,101892.81
2022-11-12T22:31:33.683Z,101884.47
2022-11-12T22:34:21.030Z,101888.81
2022-11-12T22:37:08.180Z,101900.22
2022-11-12T22:39:55.748Z,101890.63
2022-11-12T22:42:42.820Z,101887.97
2022-11-12T22:45:30.256Z,101892.34
2022-11-12T22:48:17.498Z,101876.59
2022-11-12T22:51:08.089Z,101879.16
2022-11-12T22:53:58.937Z,101880.09
2022-11-12T22:56:45.800Z,101869.38
2022-11-12T22:59:34.673Z,101874.78
2022-11-12T23:02:22.472Z,101876.59
2022-11-12T23:05:09.588Z,101872.25
2022-11-12T23:07:56.373Z,101865.13
2022-11-12T23:10:45.940Z,101852.91
2022-11-12T23:13:33.485Z,101866.06
2022-11-12T23:16:24.432Z,101856.41
2022-11-12T23:19:11.325Z,101856.47
2022-11-12T23:22:02.835Z,101863.50
2022-11-12T23:24:52.045Z,101848.03
2022-11-12T23:27:39.823Z,101852.22
2022-11-12T23:30:26.894Z,101848.59
2022-11-12T23:33:15.392Z,101835.69
2022-11-12T23:36:12.491Z,101847.84
2022-11-12T23:39:02.009Z,101838.19
2022-11-12T23:41:48.779Z,101838.94
2022-11-12T23:44:35.973Z,101842.53
2022-11-12T23:47:23.230Z,101836.38
2022-11-12T23:50:11.367Z,101834.75
2022-11-12T23:52:58.328Z,101826.69
2022-11-12T23:55:47.123Z,101830.31
2022-11-12T23:58:34.183Z,101818.84
